Time;durP1;ratioP1;P1;durP2;ratioP2;P2;SDS_P1;SDS_P2;PMS_P1;PMS_P2;Temp;Humidity;BMP_temperature;BMP_pressure;BME280_temperature;BME280_humidity;BME280_pressure;Samples;Min_cycle;Max_cycle;Signal;HPM_P1;HPM_P2
2023/06/09 00:01:53;;;;;;;22.50;7.55;;;11.90;99.90;;;;;;5046005;28;20045;-66
2023/06/09 00:04:23;;;;;;;25.92;8.18;;;11.90;99.90;;;;;;5011053;28;20077;-66
2023/06/09 00:06:51;;;;;;;20.58;7.97;;;11.90;99.90;;;;;;5044541;28;20107;-66
2023/06/09 00:09:18;;;;;;;22.52;7.55;;;11.90;99.90;;;;;;5046311;28;20491;-66
2023/06/09 00:11:45;;;;;;;20.23;8.02;;;12.00;99.90;;;;;;5011276;28;20060;-66
2023/06/09 00:14:10;;;;;;;28.02;8.68;;;11.90;99.90;;;;;;5012089;28;20064;-65
2023/06/09 00:16:37;;;;;;;25.25;7.13;;;12.00;99.90;;;;;;5011816;28;20164;-65
2023/06/09 00:19:03;;;;;;;25.08;7.50;;;11.90;99.90;;;;;;4994615;28;20288;-65
2023/06/09 00:21:29;;;;;;;21.90;7.53;;;11.90;99.90;;;;;;5011960;28;20854;-65
2023/06/09 00:23:58;;;;;;;27.88;7.70;;;12.00;99.90;;;;;;5011318;28;20084;-65
2023/06/09 00:26:23;;;;;;;20.63;7.10;;;12.00;99.90;;;;;;5046795;28;20124;-65
2023/06/09 00:28:49;;;;;;;23.17;7.20;;;12.00;99.90;;;;;;5010995;28;20392;-65
2023/06/09 00:31:15;;;;;;;23.55;7.68;;;12.00;99.90;;;;;;5012739;28;20118;-66
2023/06/09 00:33:41;;;;;;;20.50;6.97;;;12.10;99.90;;;;;;4994966;28;20469;-65
2023/06/09 00:36:07;;;;;;;25.35;7.30;;;12.00;99.90;;;;;;5044225;28;20144;-66
2023/06/09 00:38:34;;;;;;;26.98;7.63;;;12.10;99.90;;;;;;5046953;28;20684;-65
2023/06/09 00:41:00;;;;;;;18.67;6.22;;;12.00;99.90;;;;;;5043559;28;20044;-66
2023/06/09 00:43:26;;;;;;;29.38;7.38;;;12.00;99.90;;;;;;5028349;28;20240;-65
2023/06/09 00:45:52;;;;;;;19.83;6.57;;;12.10;99.90;;;;;;5043476;28;20325;-65
2023/06/09 00:48:18;;;;;;;30.75;7.88;;;12.10;99.90;;;;;;5043501;28;20052;-65
2023/06/09 00:50:44;;;;;;;23.92;7.00;;;12.00;99.90;;;;;;5044868;28;20041;-65
2023/06/09 00:53:11;;;;;;;24.55;8.32;;;12.10;99.90;;;;;;5011758;28;20048;-65
2023/06/09 00:55:40;;;;;;;24.85;7.70;;;12.10;99.90;;;;;;4997067;28;20045;-66
2023/06/09 00:58:07;;;;;;;23.25;8.07;;;12.00;99.90;;;;;;5011091;28;20229;-65
2023/06/09 01:00:35;;;;;;;32.15;8.25;;;12.10;99.90;;;;;;5011611;28;20355;-66
2023/06/09 01:03:02;;;;;;;22.23;7.35;;;12.10;99.90;;;;;;5011507;28;20539;-65
2023/06/09 01:05:38;;;;;;;26.48;8.30;;;12.00;99.90;;;;;;5027934;28;20103;-65
2023/06/09 01:08:26;;;;;;;25.65;8.55;;;12.00;99.90;;;;;;5027828;28;20060;-65
2023/06/09 01:11:21;;;;;;;29.00;8.90;;;12.00;99.90;;;;;;5012105;28;20119;-65
2023/06/09 01:14:02;;;;;;;27.00;8.70;;;11.90;99.90;;;;;;5027717;28;20033;-65
2023/06/09 01:16:44;;;;;;;27.30;9.55;;;12.00;99.90;;;;;;5044449;28;20079;-64
2023/06/09 01:19:25;;;;;;;24.13;8.20;;;12.00;99.90;;;;;;5044058;28;20038;-65
2023/06/09 01:21:59;;;;;;;27.80;8.52;;;11.90;99.90;;;;;;5022288;28;20360;-65
2023/06/09 01:24:45;;;;;;;25.00;8.70;;;11.90;99.90;;;;;;5044712;28;20124;-65
2023/06/09 01:27:14;;;;;;;30.52;8.75;;;11.90;99.90;;;;;;5010448;28;20049;-65
2023/06/09 01:29:43;;;;;;;24.73;8.07;;;11.90;99.90;;;;;;5044586;28;20056;-65
2023/06/09 01:32:10;;;;;;;25.70;8.18;;;11.90;99.90;;;;;;5027539;28;20056;-66
2023/06/09 01:34:36;;;;;;;26.33;8.65;;;12.00;99.90;;;;;;5010166;28;20111;-64
2023/06/09 01:37:02;;;;;;;21.92;7.10;;;12.00;99.90;;;;;;5012306;28;20426;-65
2023/06/09 01:39:28;;;;;;;19.38;8.23;;;12.00;99.90;;;;;;4994414;28;20095;-64
2023/06/09 01:41:54;;;;;;;19.55;8.38;;;12.00;99.90;;;;;;5012181;28;20340;-65
2023/06/09 01:44:19;;;;;;;25.83;9.35;;;11.90;99.90;;;;;;5011140;28;20276;-65
2023/06/09 01:46:45;;;;;;;32.42;10.10;;;12.00;99.90;;;;;;5011882;28;20052;-65
2023/06/09 01:49:22;;;;;;;28.52;11.05;;;12.00;99.90;;;;;;5010499;28;20072;-65
2023/06/09 01:51:56;;;;;;;20.73;8.30;;;11.90;99.90;;;;;;5011337;28;20470;-65
2023/06/09 01:54:37;;;;;;;28.55;10.30;;;11.90;99.90;;;;;;5028046;28;20045;-66
2023/06/09 01:57:07;;;;;;;29.70;10.35;;;12.00;99.90;;;;;;5044069;28;20037;-66
2023/06/09 01:59:43;;;;;;;20.42;9.77;;;11.90;99.90;;;;;;5012828;28;20264;-65
2023/06/09 02:02:10;;;;;;;27.63;10.73;;;12.00;99.90;;;;;;5010371;28;20053;-65
2023/06/09 02:04:37;;;;;;;22.65;10.48;;;11.90;99.90;;;;;;5009128;28;20309;-65
2023/06/09 02:07:05;;;;;;;25.58;10.00;;;11.90;99.90;;;;;;5044712;28;20049;-65
2023/06/09 02:09:32;;;;;;;31.20;10.60;;;11.80;99.90;;;;;;5045522;28;20048;-65
2023/06/09 02:11:59;;;;;;;24.90;9.40;;;11.90;99.90;;;;;;5013645;28;20041;-65
2023/06/09 02:14:34;;;;;;;26.02;10.05;;;11.90;99.90;;;;;;5014285;28;20037;-65
2023/06/09 02:17:02;;;;;;;27.15;10.43;;;11.90;99.90;;;;;;5012547;28;20037;-65
2023/06/09 02:19:30;;;;;;;25.80;10.90;;;11.90;99.90;;;;;;5030859;28;20044;-65
2023/06/09 02:21:57;;;;;;;26.27;11.00;;;11.90;99.90;;;;;;5013784;28;20276;-64
2023/06/09 02:24:28;;;;;;;28.52;10.98;;;11.90;99.90;;;;;;5031611;28;20087;-64
2023/06/09 02:26:57;;;;;;;22.55;10.98;;;11.90;99.90;;;;;;5000123;28;20071;-65
2023/06/09 02:29:24;;;;;;;30.30;12.32;;;12.00;99.90;;;;;;5014251;28;20080;-64
2023/06/09 02:31:50;;;;;;;27.20;12.35;;;11.90;99.90;;;;;;5046329;28;20055;-65
2023/06/09 02:34:16;;;;;;;33.25;12.45;;;12.00;99.90;;;;;;5033525;28;20049;-64
2023/06/09 02:36:42;;;;;;;28.48;10.98;;;11.90;99.90;;;;;;5031467;28;20045;-64
2023/06/09 02:39:08;;;;;;;31.23;11.75;;;11.90;99.90;;;;;;5031251;28;20586;-64
2023/06/09 02:41:34;;;;;;;26.90;11.20;;;11.90;99.90;;;;;;5012904;28;20560;-65
2023/06/09 02:44:00;;;;;;;24.95;10.95;;;12.00;99.90;;;;;;5013879;28;20044;-66
2023/06/09 02:46:25;;;;;;;23.58;9.90;;;12.00;99.90;;;;;;5039565;28;20068;-65
2023/06/09 02:48:51;;;;;;;36.20;12.35;;;12.00;99.90;;;;;;5013239;28;20375;-65
2023/06/09 02:51:17;;;;;;;34.10;12.00;;;12.00;99.90;;;;;;5013453;28;20671;-65
2023/06/09 02:53:42;;;;;;;28.80;11.73;;;12.00;99.90;;;;;;4998064;28;20049;-65
2023/06/09 02:56:10;;;;;;;24.42;10.88;;;11.90;99.90;;;;;;5012448;28;20441;-66
2023/06/09 02:58:35;;;;;;;32.25;11.88;;;12.00;99.90;;;;;;5013488;28;20063;-65
2023/06/09 03:01:02;;;;;;;30.45;12.23;;;12.00;99.90;;;;;;5012377;28;20045;-65
2023/06/09 03:03:31;;;;;;;32.75;11.07;;;11.90;99.90;;;;;;5013671;28;20179;-65
2023/06/09 03:05:58;;;;;;;27.48;11.05;;;12.00;99.90;;;;;;5045249;28;20147;-65
2023/06/09 03:08:24;;;;;;;32.03;11.73;;;12.00;99.90;;;;;;5012990;28;20097;-65
2023/06/09 03:10:50;;;;;;;30.10;11.25;;;12.00;99.90;;;;;;5032343;28;20049;-65
2023/06/09 03:13:16;;;;;;;19.27;9.52;;;12.00;99.90;;;;;;5029897;28;20066;-65
2023/06/09 03:15:42;;;;;;;26.33;10.73;;;12.10;99.90;;;;;;5013138;28;20053;-66
2023/06/09 03:18:11;;;;;;;30.70;11.82;;;12.10;99.90;;;;;;5047054;28;20217;-65
2023/06/09 03:20:37;;;;;;;27.58;10.95;;;12.00;99.90;;;;;;5013226;28;20049;-64
2023/06/09 03:23:02;;;;;;;24.83;9.52;;;11.90;99.90;;;;;;5007154;28;20044;-65
2023/06/09 03:25:30;;;;;;;30.83;10.95;;;12.00;99.90;;;;;;5007083;28;20517;-66
2023/06/09 03:27:56;;;;;;;25.17;10.00;;;12.00;99.90;;;;;;5014431;28;20586;-65
2023/06/09 03:30:22;;;;;;;26.60;9.60;;;12.00;99.90;;;;;;5045721;28;20041;-65
2023/06/09 03:32:48;;;;;;;29.02;10.82;;;12.00;99.90;;;;;;5014722;28;20041;-64
2023/06/09 03:35:15;;;;;;;23.52;9.05;;;11.90;99.90;;;;;;5031901;28;20351;-65
2023/06/09 03:37:41;;;;;;;25.92;10.27;;;12.00;99.90;;;;;;5029340;28;20049;-66
2023/06/09 03:40:07;;;;;;;23.50;9.68;;;12.00;99.90;;;;;;4997096;28;20045;-65
2023/06/09 03:42:33;;;;;;;22.65;9.07;;;12.00;99.90;;;;;;5046678;28;20056;-65
2023/06/09 03:44:58;;;;;;;21.90;9.75;;;12.10;99.90;;;;;;5044912;28;20650;-65
2023/06/09 03:47:27;;;;;;;26.67;9.75;;;12.10;99.90;;;;;;5012673;28;20404;-65
2023/06/09 03:49:54;;;;;;;27.98;9.90;;;12.10;99.90;;;;;;5012486;28;20109;-65
2023/06/09 03:52:21;;;;;;;18.70;8.30;;;12.10;99.90;;;;;;5012809;28;20124;-65
2023/06/09 03:54:48;;;;;;;23.48;8.98;;;12.10;99.90;;;;;;5030652;28;20071;-65
2023/06/09 03:57:13;;;;;;;27.00;9.85;;;12.20;99.90;;;;;;5044693;28;20433;-65
2023/06/09 03:59:39;;;;;;;26.92;9.88;;;12.20;99.90;;;;;;5011460;28;20049;-65
2023/06/09 04:02:05;;;;;;;26.48;10.75;;;12.20;99.90;;;;;;5021296;28;20048;-65
2023/06/09 04:04:31;;;;;;;32.22;11.02;;;12.20;99.90;;;;;;5029095;28;20088;-66
2023/06/09 04:06:58;;;;;;;24.98;10.38;;;12.30;99.90;;;;;;5028849;28;20583;-66
2023/06/09 04:09:24;;;;;;;28.83;11.13;;;12.20;99.90;;;;;;5011697;28;20148;-67
2023/06/09 04:11:50;;;;;;;31.83;12.40;;;12.30;99.90;;;;;;5012237;28;20129;-66
2023/06/09 04:14:16;;;;;;;26.52;10.75;;;12.30;99.90;;;;;;5011368;28;20558;-66
2023/06/09 04:16:42;;;;;;;25.52;11.07;;;12.30;99.90;;;;;;5012064;28;20041;-66
2023/06/09 04:19:08;;;;;;;27.20;10.63;;;12.30;99.90;;;;;;5045086;28;20057;-66
2023/06/09 04:21:36;;;;;;;23.10;11.05;;;12.50;99.90;;;;;;4996469;28;20103;-66
2023/06/09 04:24:01;;;;;;;27.42;9.68;;;12.40;99.90;;;;;;4998658;28;20045;-66
2023/06/09 04:26:27;;;;;;;31.30;10.50;;;12.50;99.90;;;;;;5029592;28;20208;-66
2023/06/09 04:28:53;;;;;;;26.15;9.43;;;12.40;99.90;;;;;;5029735;28;20155;-66
2023/06/09 04:31:23;;;;;;;29.83;9.55;;;12.50;99.90;;;;;;4997446;28;20075;-66
2023/06/09 04:33:54;;;;;;;25.55;9.63;;;12.60;99.90;;;;;;5028999;28;20505;-66
2023/06/09 04:36:20;;;;;;;27.05;9.68;;;12.70;99.90;;;;;;5029364;28;20045;-66
2023/06/09 04:38:46;;;;;;;26.98;9.10;;;12.70;99.90;;;;;;5011378;28;20084;-66
2023/06/09 04:41:12;;;;;;;25.02;9.43;;;12.80;99.90;;;;;;5011023;28;20120;-66
2023/06/09 04:43:39;;;;;;;21.80;8.25;;;12.80;99.90;;;;;;4995102;28;20715;-66
2023/06/09 04:46:08;;;;;;;29.00;9.10;;;12.90;99.90;;;;;;5012489;28;20088;-66
2023/06/09 04:48:34;;;;;;;28.23;8.52;;;12.80;99.90;;;;;;5013363;28;20041;-66
2023/06/09 04:51:03;;;;;;;24.85;8.35;;;12.80;99.90;;;;;;5013098;28;20614;-66
2023/06/09 04:53:30;;;;;;;23.90;8.13;;;12.90;99.90;;;;;;5043633;28;20685;-66
2023/06/09 04:55:56;;;;;;;35.47;9.30;;;12.90;99.90;;;;;;5010158;28;20049;-66
2023/06/09 04:58:23;;;;;;;24.92;7.90;;;13.00;99.90;;;;;;5030611;28;20048;-66
2023/06/09 05:00:50;;;;;;;25.15;8.57;;;13.10;99.90;;;;;;5011139;28;20071;-66
2023/06/09 05:03:17;;;;;;;25.98;8.48;;;13.10;99.90;;;;;;5027221;28;20494;-66
2023/06/09 05:05:43;;;;;;;19.58;8.02;;;13.20;99.90;;;;;;5002950;28;20088;-66
2023/06/09 05:08:09;;;;;;;23.88;7.55;;;13.20;99.90;;;;;;5037156;28;20069;-66
2023/06/09 05:10:35;;;;;;;20.30;7.68;;;13.30;99.90;;;;;;5062818;28;20491;-66
2023/06/09 05:13:01;;;;;;;26.50;8.40;;;13.30;99.90;;;;;;5045813;28;20044;-66
2023/06/09 05:15:27;;;;;;;21.05;7.28;;;13.30;99.90;;;;;;5028951;28;20381;-66
2023/06/09 05:17:53;;;;;;;21.60;7.68;;;13.50;99.90;;;;;;5024967;28;20536;-66
2023/06/09 05:20:19;;;;;;;24.20;7.57;;;13.50;99.90;;;;;;5043663;28;20455;-66
2023/06/09 05:22:45;;;;;;;18.33;6.78;;;13.60;99.90;;;;;;5028049;28;20394;-66
2023/06/09 05:25:14;;;;;;;25.83;8.32;;;13.50;99.90;;;;;;4994018;28;20049;-65
2023/06/09 05:27:39;;;;;;;22.20;7.03;;;13.60;99.90;;;;;;5014868;28;20045;-66
2023/06/09 05:30:06;;;;;;;21.05;7.03;;;13.80;99.90;;;;;;5008454;28;20042;-65
2023/06/09 05:32:32;;;;;;;22.17;6.82;;;14.10;99.90;;;;;;5011715;28;20480;-65
2023/06/09 05:34:58;;;;;;;23.20;6.85;;;14.30;60.10;;;;;;5024487;28;20048;-66
2023/06/09 05:37:24;;;;;;;16.25;6.07;;;14.50;1.00;;;;;;5026808;28;20701;-66
2023/06/09 05:39:50;;;;;;;16.35;5.60;;;14.70;1.00;;;;;;4998561;28;20502;-66
2023/06/09 05:42:16;;;;;;;17.70;5.47;;;14.70;1.00;;;;;;5010325;28;20258;-66
2023/06/09 05:44:41;;;;;;;21.73;6.65;;;14.80;99.90;;;;;;5012142;28;20060;-66
2023/06/09 05:47:07;;;;;;;13.88;5.25;;;15.00;99.90;;;;;;5014065;28;20148;-66
2023/06/09 05:49:34;;;;;;;16.63;5.60;;;15.20;99.90;;;;;;5016059;28;20041;-66
2023/06/09 05:52:00;;;;;;;18.58;5.82;;;15.20;99.90;;;;;;5017804;28;20075;-66
2023/06/09 05:54:26;;;;;;;17.65;6.35;;;15.30;99.90;;;;;;5033323;28;20037;-66
2023/06/09 05:56:53;;;;;;;16.95;5.53;;;15.40;99.90;;;;;;5033105;28;20453;-66
2023/06/09 05:59:20;;;;;;;18.45;5.35;;;15.50;99.90;;;;;;5013918;28;20046;-66
2023/06/09 06:01:47;;;;;;;15.43;5.10;;;15.60;99.90;;;;;;5032101;28;20486;-66
2023/06/09 06:04:13;;;;;;;16.00;4.75;;;15.70;99.90;;;;;;5028744;28;20291;-66
2023/06/09 06:06:38;;;;;;;17.95;5.63;;;15.70;99.90;;;;;;5014587;28;20514;-66
2023/06/09 06:09:04;;;;;;;14.35;5.32;;;15.80;99.90;;;;;;4998725;28;20553;-66
2023/06/09 06:11:31;;;;;;;16.60;4.88;;;16.00;99.90;;;;;;5047095;28;20041;-66
2023/06/09 06:13:57;;;;;;;18.73;5.38;;;15.90;99.90;;;;;;4998003;28;20073;-66
2023/06/09 06:16:22;;;;;;;19.30;5.50;;;16.10;99.90;;;;;;5014839;28;20612;-66
2023/06/09 06:18:48;;;;;;;17.52;6.13;;;16.20;97.90;;;;;;5029901;28;20041;-66
2023/06/09 06:21:14;;;;;;;12.38;5.03;;;16.30;58.20;;;;;;5014644;28;20128;-68
2023/06/09 06:23:39;;;;;;;16.80;5.47;;;16.50;46.80;;;;;;5013789;28;20117;-67
2023/06/09 06:26:05;;;;;;;14.90;4.90;;;16.50;24.50;;;;;;5014782;28;20321;-67
2023/06/09 06:28:31;;;;;;;14.73;4.70;;;16.70;1.00;;;;;;4997656;28;20166;-67
2023/06/09 06:30:57;;;;;;;11.50;4.20;;;16.80;1.00;;;;;;5013385;28;20032;-67
2023/06/09 06:33:23;;;;;;;14.15;4.72;;;17.00;1.00;;;;;;5045637;28;20037;-67
2023/06/09 06:35:49;;;;;;;14.93;5.15;;;17.10;1.00;;;;;;4999331;28;20292;-66
2023/06/09 06:38:15;;;;;;;13.73;4.95;;;17.10;1.00;;;;;;4998350;28;20056;-65
2023/06/09 06:40:43;;;;;;;10.75;4.57;;;17.20;1.00;;;;;;5028438;28;20551;-65
2023/06/09 06:43:09;;;;;;;11.43;4.38;;;17.40;99.90;;;;;;5012997;28;20631;-65
2023/06/09 06:45:35;;;;;;;10.05;4.57;;;17.40;99.90;;;;;;5046194;28;20368;-65
2023/06/09 06:48:01;;;;;;;14.48;4.93;;;17.60;1.00;;;;;;5014743;28;20383;-66
2023/06/09 06:50:27;;;;;;;19.30;5.30;;;17.80;99.90;;;;;;5012812;28;20291;-66
2023/06/09 06:52:53;;;;;;;16.33;4.85;;;17.80;99.90;;;;;;5013685;28;20722;-66
2023/06/09 06:55:18;;;;;;;14.60;4.70;;;18.00;99.90;;;;;;5013699;28;20037;-66
2023/06/09 06:57:45;;;;;;;13.18;4.60;;;18.00;99.90;;;;;;5013611;28;20506;-66
2023/06/09 07:00:14;;;;;;;13.18;4.60;;;18.20;99.90;;;;;;4991847;28;20049;-66
2023/06/09 07:02:41;;;;;;;10.57;4.30;;;18.30;99.90;;;;;;5012065;28;20058;-65
2023/06/09 07:05:07;;;;;;;13.52;4.80;;;18.30;99.90;;;;;;5040008;28;20102;-66
2023/06/09 07:07:33;;;;;;;15.18;5.00;;;18.40;99.90;;;;;;5024034;28;20132;-65
2023/06/09 07:09:58;;;;;;;14.15;4.57;;;18.50;99.90;;;;;;5026409;28;20140;-66
2023/06/09 07:12:24;;;;;;;15.43;4.90;;;18.70;99.90;;;;;;5040485;28;20063;-65
2023/06/09 07:14:50;;;;;;;14.38;4.70;;;18.80;99.90;;;;;;5022428;28;20037;-66
2023/06/09 07:17:16;;;;;;;9.27;4.53;;;19.00;99.90;;;;;;5003407;28;20044;-65
2023/06/09 07:19:42;;;;;;;13.88;4.75;;;19.00;99.90;;;;;;5035755;28;20049;-66
2023/06/09 07:22:08;;;;;;;12.82;4.70;;;19.00;99.90;;;;;;4998262;28;20069;-66
2023/06/09 07:24:34;;;;;;;12.00;4.13;;;19.10;99.90;;;;;;5047290;28;20412;-65
2023/06/09 07:27:00;;;;;;;16.90;4.57;;;19.20;99.90;;;;;;5015354;28;20033;-67
2023/06/09 07:29:25;;;;;;;11.73;4.25;;;19.30;99.90;;;;;;5013064;28;20064;-67
2023/06/09 07:31:52;;;;;;;12.73;4.43;;;19.30;99.90;;;;;;4996033;28;20532;-67
2023/06/09 07:34:18;;;;;;;11.02;4.32;;;19.30;99.90;;;;;;5015785;28;20270;-67
2023/06/09 07:36:50;;;;;;;14.70;4.78;;;19.40;99.90;;;;;;5013277;28;20554;-67
2023/06/09 07:39:17;;;;;;;12.63;4.60;;;19.40;99.90;;;;;;5046251;28;20636;-67
2023/06/09 07:41:42;;;;;;;12.43;4.90;;;19.60;99.90;;;;;;4995883;28;20142;-67
2023/06/09 07:44:09;;;;;;;14.25;4.90;;;19.80;99.90;;;;;;5014831;28;20113;-66
2023/06/09 07:46:35;;;;;;;13.18;4.43;;;20.00;99.90;;;;;;4990379;28;20063;-67
2023/06/09 07:49:01;;;;;;;10.05;3.95;;;20.20;99.90;;;;;;5012460;28;20045;-67
2023/06/09 07:51:29;;;;;;;14.40;4.65;;;20.30;99.90;;;;;;5012122;28;20033;-67
2023/06/09 07:53:54;;;;;;;10.13;4.32;;;20.40;99.90;;;;;;5013135;28;20446;-66
2023/06/09 07:56:20;;;;;;;10.82;4.32;;;20.50;99.90;;;;;;5045452;28;20056;-67
2023/06/09 07:58:46;;;;;;;11.70;4.20;;;20.70;99.90;;;;;;5012813;28;20293;-67
2023/06/09 08:01:12;;;;;;;10.93;4.10;;;20.90;99.90;;;;;;5027528;28;20284;-67
2023/06/09 08:03:38;;;;;;;11.98;3.97;;;21.10;99.90;;;;;;5011053;28;20163;-67
2023/06/09 08:06:04;;;;;;;10.68;3.83;;;21.30;99.90;;;;;;5010933;28;20053;-67
2023/06/09 08:08:31;;;;;;;10.40;4.28;;;21.60;61.90;;;;;;5012955;28;20041;-67
2023/06/09 08:10:58;;;;;;;11.07;3.80;;;21.70;21.90;;;;;;5011511;28;20048;-67
2023/06/09 08:13:24;;;;;;;12.45;3.70;;;21.80;66.60;;;;;;5013053;28;20099;-67
2023/06/09 08:15:50;;;;;;;12.82;4.05;;;21.90;1.00;;;;;;4996652;28;20049;-67
2023/06/09 08:18:16;;;;;;;14.23;4.25;;;22.00;1.00;;;;;;5012752;28;20099;-67
2023/06/09 08:20:41;;;;;;;8.88;3.88;;;22.20;1.00;;;;;;5010332;28;20118;-67
2023/06/09 08:23:10;;;;;;;10.68;4.18;;;22.40;1.00;;;;;;5012957;28;20049;-67
2023/06/09 08:25:36;;;;;;;11.63;3.83;;;22.50;1.00;;;;;;5011198;28;20080;-67
2023/06/09 08:28:02;;;;;;;10.95;3.70;;;22.70;99.90;;;;;;5043397;28;20288;-67
2023/06/09 08:30:28;;;;;;;8.75;3.65;;;22.80;99.90;;;;;;5011255;28;20181;-67
2023/06/09 08:32:54;;;;;;;10.35;3.63;;;23.00;99.90;;;;;;5012591;28;20041;-67
2023/06/09 08:35:21;;;;;;;7.55;3.33;;;23.20;99.90;;;;;;5026367;28;20045;-67
2023/06/09 08:37:47;;;;;;;10.45;3.35;;;23.40;99.90;;;;;;4996471;28;20495;-67
2023/06/09 08:40:14;;;;;;;10.57;3.42;;;23.60;99.90;;;;;;5013853;28;20049;-67
2023/06/09 08:42:43;;;;;;;9.60;3.22;;;23.60;99.90;;;;;;4998149;28;20786;-67
2023/06/09 08:45:09;;;;;;;9.07;3.00;;;23.80;99.90;;;;;;5014755;28;20041;-67
2023/06/09 08:47:36;;;;;;;8.80;3.55;;;24.00;99.90;;;;;;4998708;28;21505;-67
2023/06/09 08:50:04;;;;;;;8.95;3.30;;;24.10;99.90;;;;;;5046918;28;20047;-67
2023/06/09 08:52:30;;;;;;;10.90;2.95;;;24.30;99.90;;;;;;5015508;28;20044;-67
2023/06/09 08:54:58;;;;;;;12.52;4.22;;;24.40;99.90;;;;;;5013076;28;20045;-67
2023/06/09 08:57:24;;;;;;;8.27;3.00;;;24.50;99.90;;;;;;5014542;28;20045;-67
2023/06/09 08:59:50;;;;;;;10.02;3.15;;;24.70;99.90;;;;;;5014450;28;20930;-67
2023/06/09 09:02:17;;;;;;;8.43;2.90;;;24.80;99.90;;;;;;5032321;28;20046;-67
2023/06/09 09:04:44;;;;;;;9.82;2.90;;;25.00;99.90;;;;;;4997483;28;20041;-67
2023/06/09 09:07:13;;;;;;;8.02;3.15;;;25.10;99.90;;;;;;5013264;28;20144;-67
2023/06/09 09:09:40;;;;;;;11.65;3.05;;;25.20;63.20;;;;;;5031627;28;20050;-67
2023/06/09 09:12:12;;;;;;;7.18;3.08;;;25.40;33.60;;;;;;5014999;28;20103;-68
2023/06/09 09:14:42;;;;;;;7.72;2.78;;;25.40;13.70;;;;;;5015820;28;20427;-67
2023/06/09 09:17:13;;;;;;;6.65;2.78;;;25.50;2.60;;;;;;5028468;28;20049;-66
2023/06/09 09:19:45;;;;;;;7.07;2.70;;;25.70;1.00;;;;;;5025635;28;20610;-66
2023/06/09 09:22:11;;;;;;;6.00;2.45;;;25.90;1.00;;;;;;5052441;28;20800;-66
2023/06/09 09:24:41;;;;;;;8.45;2.85;;;25.90;1.00;;;;;;5033131;28;20125;-67
2023/06/09 09:27:22;;;;;;;7.97;2.65;;;26.00;1.00;;;;;;5016144;28;20048;-67
2023/06/09 09:29:48;;;;;;;10.38;2.78;;;26.10;1.00;;;;;;5017158;28;20041;-66
2023/06/09 09:32:15;;;;;;;8.07;2.58;;;26.30;1.00;;;;;;5034628;28;20037;-66
2023/06/09 09:34:42;;;;;;;7.10;2.28;;;26.30;1.00;;;;;;5052852;28;20061;-66
2023/06/09 09:37:13;;;;;;;8.70;2.42;;;26.60;1.00;;;;;;5020236;28;20045;-66
2023/06/09 09:39:52;;;;;;;7.28;2.60;;;26.80;1.00;;;;;;5018562;28;20037;-67
2023/06/09 09:42:19;;;;;;;6.40;2.47;;;26.90;1.00;;;;;;5019540;28;20037;-66
2023/06/09 09:44:47;;;;;;;8.90;2.70;;;27.10;99.90;;;;;;5035571;28;20077;-67
2023/06/09 09:47:15;;;;;;;6.40;2.38;;;27.20;99.90;;;;;;5017156;28;20065;-67
2023/06/09 09:49:52;;;;;;;8.32;2.80;;;27.40;99.90;;;;;;5019301;28;20761;-67
2023/06/09 09:52:26;;;;;;;13.65;3.15;;;27.50;99.90;;;;;;5048285;28;20045;-67
2023/06/09 09:54:56;;;;;;;6.18;2.65;;;27.40;99.90;;;;;;5034634;28;20040;-67
2023/06/09 09:57:23;;;;;;;7.05;2.63;;;27.30;99.90;;;;;;5020408;28;20132;-66
2023/06/09 09:59:51;;;;;;;9.27;2.95;;;27.20;99.90;;;;;;5021457;28;20045;-66
2023/06/09 10:02:22;;;;;;;6.75;2.47;;;27.10;99.90;;;;;;5014981;28;20124;-66
2023/06/09 10:04:49;;;;;;;6.82;2.45;;;27.00;99.90;;;;;;5032063;28;20581;-66
2023/06/09 10:07:21;;;;;;;6.70;2.47;;;27.00;99.90;;;;;;5056151;28;20049;-67
2023/06/09 10:09:54;;;;;;;10.10;2.42;;;27.10;99.90;;;;;;5026776;28;20102;-66
2023/06/09 10:12:20;;;;;;;4.22;1.90;;;27.40;99.90;;;;;;5046846;28;20500;-66
2023/06/09 10:14:49;;;;;;;5.55;2.63;;;27.40;99.90;;;;;;5013807;28;20053;-67
2023/06/09 10:17:22;;;;;;;6.57;2.70;;;27.00;99.90;;;;;;4996196;28;20366;-67
2023/06/09 10:19:51;;;;;;;4.65;2.40;;;26.80;99.90;;;;;;5047281;28;20131;-67
2023/06/09 10:22:19;;;;;;;5.93;2.55;;;27.20;99.90;;;;;;5046885;28;20038;-67
2023/06/09 10:24:46;;;;;;;5.97;2.35;;;27.30;99.90;;;;;;5012697;28;20492;-67
2023/06/09 10:27:13;;;;;;;5.03;2.50;;;27.40;99.90;;;;;;5013001;28;20049;-67
2023/06/09 10:29:40;;;;;;;5.43;2.17;;;27.50;99.90;;;;;;5023652;28;20103;-66
2023/06/09 10:32:08;;;;;;;5.95;2.65;;;27.70;99.90;;;;;;5031032;28;20049;-66
2023/06/09 10:34:35;;;;;;;7.90;2.38;;;27.90;99.90;;;;;;5014510;28;20682;-66
2023/06/09 10:37:01;;;;;;;4.70;2.33;;;27.90;99.90;;;;;;5047911;28;20060;-67
2023/06/09 10:39:44;;;;;;;7.53;2.70;;;27.90;99.90;;;;;;5029593;28;20041;-67
2023/06/09 10:42:21;;;;;;;6.43;2.50;;;27.80;99.90;;;;;;5049151;28;20049;-66
2023/06/09 10:45:10;;;;;;;6.80;2.80;;;27.80;99.90;;;;;;5013515;28;20049;-65
2023/06/09 10:47:50;;;;;;;5.68;2.55;;;27.80;99.90;;;;;;4996069;28;20282;-67
2023/06/09 10:50:22;;;;;;;5.65;2.53;;;27.80;99.90;;;;;;5014874;28;20055;-67
2023/06/09 10:52:55;;;;;;;7.55;2.63;;;27.60;99.90;;;;;;5065179;28;20205;-67
2023/06/09 10:55:22;;;;;;;7.63;2.63;;;27.70;99.90;;;;;;5064944;28;20509;-67
2023/06/09 10:57:50;;;;;;;5.30;2.30;;;27.90;99.90;;;;;;5065073;28;20346;-67
2023/06/09 11:00:16;;;;;;;5.13;2.63;;;28.10;99.90;;;;;;5064357;28;20087;-67
2023/06/09 11:02:46;;;;;;;4.00;2.47;;;28.10;99.90;;;;;;5031296;28;20526;-66
2023/06/09 11:05:12;;;;;;;8.07;2.53;;;28.00;99.90;;;;;;5048213;28;20510;-67
2023/06/09 11:07:52;;;;;;;4.82;2.30;;;28.10;99.90;;;;;;5031580;28;20393;-67
2023/06/09 11:10:19;;;;;;;5.32;2.50;;;28.00;99.90;;;;;;5014816;28;20283;-66
2023/06/09 11:12:46;;;;;;;4.30;2.45;;;27.90;99.90;;;;;;5064802;28;20050;-67
2023/06/09 11:15:16;;;;;;;5.25;2.50;;;27.90;99.90;;;;;;5031518;28;20060;-66
2023/06/09 11:17:42;;;;;;;4.60;2.42;;;27.90;99.90;;;;;;5031169;28;20045;-66
2023/06/09 11:20:08;;;;;;;6.57;2.75;;;28.00;99.90;;;;;;5064137;28;20055;-66
2023/06/09 11:22:40;;;;;;;8.68;2.58;;;27.90;99.90;;;;;;5064353;28;20049;-66
2023/06/09 11:25:24;;;;;;;6.28;2.88;;;28.10;99.90;;;;;;5064120;28;20037;-66
2023/06/09 11:27:59;;;;;;;7.85;2.33;;;28.50;99.90;;;;;;5065313;28;20204;-68
2023/06/09 11:30:32;;;;;;;7.93;3.35;;;29.00;99.90;;;;;;5066233;28;20047;-67
2023/06/09 11:33:00;;;;;;;9.90;3.08;;;29.30;99.90;;;;;;5066334;28;20041;-67
2023/06/09 11:35:29;;;;;;;6.30;2.85;;;29.10;99.90;;;;;;5032989;28;20079;-67
2023/06/09 11:38:05;;;;;;;6.82;3.00;;;29.60;99.90;;;;;;5066483;28;20070;-67
2023/06/09 11:40:32;;;;;;;6.97;2.70;;;29.80;99.90;;;;;;5034967;28;20170;-67
2023/06/09 11:42:59;;;;;;;8.05;2.65;;;30.00;99.90;;;;;;5066437;28;20041;-67
2023/06/09 11:45:32;;;;;;;7.47;2.40;;;30.30;99.90;;;;;;5033586;28;20547;-67
2023/06/09 11:47:59;;;;;;;6.85;2.83;;;30.40;99.90;;;;;;5034639;28;20088;-66
2023/06/09 11:50:35;;;;;;;8.20;2.90;;;29.30;99.90;;;;;;5067674;28;20099;-67
2023/06/09 11:53:06;;;;;;;7.15;3.03;;;28.30;99.90;;;;;;5066889;28;20049;-67
2023/06/09 11:55:32;;;;;;;6.60;2.50;;;28.40;99.90;;;;;;5014607;28;20147;-67
2023/06/09 11:57:58;;;;;;;8.05;2.92;;;28.60;99.90;;;;;;5015183;28;20120;-67
2023/06/09 12:00:29;;;;;;;6.63;3.00;;;28.40;1.00;;;;;;5048484;28;20341;-67
2023/06/09 12:02:56;;;;;;;8.82;3.47;;;28.40;1.00;;;;;;4998284;28;20158;-67
2023/06/09 12:05:23;;;;;;;10.25;2.90;;;28.40;40.50;;;;;;4998050;28;20691;-68
2023/06/09 12:07:51;;;;;;;8.13;2.75;;;28.20;71.90;;;;;;5065951;28;20068;-67
2023/06/09 12:10:23;;;;;;;8.15;2.97;;;28.40;31.00;;;;;;5034214;28;20048;-67
2023/06/09 12:12:51;;;;;;;8.27;3.13;;;27.50;99.90;;;;;;5049997;28;20091;-67
2023/06/09 12:15:19;;;;;;;10.50;3.28;;;27.40;99.90;;;;;;5000110;28;20076;-66
2023/06/09 12:17:53;;;;;;;8.77;2.50;;;27.50;99.90;;;;;;5066393;28;20056;-67
2023/06/09 12:20:33;;;;;;;9.75;3.40;;;27.50;99.90;;;;;;5032249;28;20080;-66
2023/06/09 12:23:08;;;;;;;9.70;3.20;;;27.10;99.90;;;;;;5049757;28;20044;-67
2023/06/09 12:25:42;;;;;;;9.27;2.97;;;27.20;99.90;;;;;;5013137;28;20410;-67
2023/06/09 12:28:21;;;;;;;8.93;2.88;;;27.20;99.90;;;;;;5015028;28;20889;-67
2023/06/09 12:30:51;;;;;;;13.02;2.95;;;27.20;99.90;;;;;;5031614;28;20122;-66
2023/06/09 12:33:26;;;;;;;9.55;3.30;;;27.30;99.90;;;;;;5065231;28;20055;-66
2023/06/09 12:35:54;;;;;;;13.70;3.67;;;27.10;99.90;;;;;;5064836;28;20055;-67
2023/06/09 12:38:21;;;;;;;13.63;4.05;;;27.00;99.90;;;;;;4998914;28;20539;-66
2023/06/09 12:40:53;;;;;;;9.10;3.95;;;26.80;99.90;;;;;;5031584;28;20036;-67
2023/06/09 12:43:24;;;;;;;14.07;4.40;;;26.90;99.90;;;;;;5065146;28;20513;-66